BIIS

Ísafjörður Airport

Ísafjörður, Iceland
METAR BIIS 261300Z 21010G20KT 170V250 9999 SCT030 BKN060 12/03 Q1012
Observed Flight Rules
May-26 @ 13:00 UTC (53 minutes ago) Visual Flight Rules
Wind Visibility Clouds
210° at 10 knots
 Gusting to 20 knots
10,000+ meters
  • Scattered at 3,000' AGL
  • Broken at 6,000' AGL
Temperatures Readings
Current 12°C / 54°F
Dewpoint 3°C / 37°F
Humidity 54%
Altimeter 29.88" Hg
Pressure 1012 hPa
Elevation 3
METAR BIIS 261300Z 21010G20KT 170V250 9999 SCT030 BKN060 12/03 Q1012
Observed Flight Rules
May-26 @ 13:00 UTC
(53 minutes ago)
VFR
Wind Visibility
210° at 10 knots
 Gusting to 20 knots
10,000+ meters
Clouds
  • Scattered at 3,000' AGL
  • Broken at 6,000' AGL
Temperature Dewpoint
12°C / 54°F 3°C / 37°F
Humidity Altimeter Pressure
54% 29.88" Hg 1012 hPa